createdAt,value
2016-11-22T00:00:18.773Z,79.19
2016-11-22T00:01:33.590Z,78.71
2016-11-22T00:02:47.670Z,78.56
2016-11-22T00:04:02.131Z,78.37
2016-11-22T00:05:16.470Z,78.17
2016-11-22T00:06:31.004Z,78.85
2016-11-22T00:07:45.303Z,78.61
2016-11-22T00:08:59.482Z,79.51
2016-11-22T00:10:13.646Z,79.03
2016-11-22T00:11:28.636Z,78.99
2016-11-22T00:12:43.528Z,78.9
2016-11-22T00:13:57.890Z,79.19
2016-11-22T00:15:12.060Z,79.66
2016-11-22T00:16:26.800Z,79.85
2016-11-22T00:17:41.584Z,79.75
2016-11-22T00:18:55.736Z,79.66
2016-11-22T00:20:10.947Z,79.94
2016-11-22T00:21:25.010Z,80.13
2016-11-22T00:22:39.109Z,80.23
2016-11-22T00:23:53.625Z,80.23
2016-11-22T00:25:08.005Z,79.57
2016-11-22T00:26:23.053Z,80.13
2016-11-22T00:27:37.382Z,80.23
2016-11-22T00:28:52.241Z,79.75
2016-11-22T00:30:06.699Z,80.52
2016-11-22T00:31:21.326Z,79.85
2016-11-22T00:32:36.159Z,79.75
2016-11-22T00:33:50.219Z,80.23
2016-11-22T00:35:06.736Z,80.33
2016-11-22T00:36:21.453Z,79.94
2016-11-22T00:37:35.955Z,80.23
2016-11-22T00:38:50.761Z,80.42
2016-11-22T00:40:05.176Z,80.04
2016-11-22T00:41:19.966Z,80.04
2016-11-22T00:42:34.026Z,80.04
2016-11-22T00:43:48.971Z,80.42
2016-11-22T00:45:03.360Z,81.05
2016-11-22T00:46:17.992Z,81.9
2016-11-22T00:47:32.829Z,81.9
2016-11-22T00:48:46.956Z,81.37
2016-11-22T00:50:01.510Z,81.76
2016-11-22T00:51:15.895Z,81.85
2016-11-22T00:52:29.945Z,81.56
2016-11-22T00:53:44.342Z,81.56
2016-11-22T00:54:59.165Z,80.99
2016-11-22T00:56:13.409Z,80.9
2016-11-22T00:57:27.718Z,80.9
2016-11-22T00:58:42.265Z,81.56
2016-11-22T00:59:56.420Z,81.18
2016-11-22T01:01:11.699Z,81.37
2016-11-22T01:05:23.262Z,81.37
2016-11-22T01:06:37.606Z,81.56
2016-11-22T01:07:51.677Z,82.14
2016-11-22T01:09:06.022Z,81.85
2016-11-22T01:10:20.426Z,81.76
2016-11-22T01:11:34.678Z,81.28
2016-11-22T01:12:49.400Z,80.9
2016-11-22T01:14:03.493Z,81.28
2016-11-22T01:15:17.892Z,81.09
2016-11-22T01:16:32.047Z,80.9
2016-11-22T01:17:46.243Z,81.28
2016-11-22T01:19:00.586Z,81.09
2016-11-22T01:20:15.276Z,81.09
2016-11-22T01:21:29.630Z,80.71
2016-11-22T01:22:43.717Z,80.9
2016-11-22T01:23:58.193Z,81.09
2016-11-22T01:25:12.494Z,81.09
2016-11-22T01:26:26.693Z,81.18
2016-11-22T01:27:41.351Z,80.9
2016-11-22T01:28:55.431Z,81.56
2016-11-22T01:30:10.383Z,81.52
2016-11-22T01:31:24.992Z,81.52
2016-11-22T01:32:39.655Z,81.56
2016-11-22T01:33:54.211Z,81.43
2016-11-22T01:35:08.344Z,81.52
2016-11-22T01:36:22.530Z,81.05
2016-11-22T01:37:36.834Z,81.56
2016-11-22T01:38:51.414Z,81.28
2016-11-22T01:40:06.012Z,81.52
2016-11-22T01:41:20.154Z,81.14
2016-11-22T01:42:34.741Z,81.52
2016-11-22T01:43:48.803Z,81.62
2016-11-22T01:45:03.229Z,81.81
2016-11-22T01:46:17.499Z,81.71
2016-11-22T01:47:32.085Z,82.19
2016-11-22T01:48:46.293Z,82.19
2016-11-22T01:50:00.331Z,81.52
2016-11-22T01:51:14.695Z,81.81
2016-11-22T01:52:29.135Z,81.14
2016-11-22T01:53:46.042Z,81.52
2016-11-22T01:55:00.157Z,81.33
2016-11-22T01:56:14.228Z,81.33
2016-11-22T01:57:28.563Z,81.14
2016-11-22T01:58:42.917Z,80.86
2016-11-22T01:59:57.351Z,81.05
2016-11-22T02:01:12.002Z,80.95
2016-11-22T02:02:26.491Z,81.05
2016-11-22T02:03:41.156Z,81.14
2016-11-22T02:04:55.909Z,81.05
2016-11-22T02:06:09.967Z,81.52
2016-11-22T02:07:24.008Z,81.52
2016-11-22T02:08:38.353Z,82
2016-11-22T02:09:52.536Z,81.81
2016-11-22T02:11:06.842Z,81.52
2016-11-22T02:12:21.350Z,81.9
2016-11-22T02:13:35.699Z,81.52
2016-11-22T02:14:50.085Z,81.43
2016-11-22T02:16:04.211Z,81.52
2016-11-22T02:17:18.886Z,82
2016-11-22T02:18:32.931Z,82
2016-11-22T02:19:47.253Z,82.19
2016-11-22T02:21:01.290Z,82.38
2016-11-22T02:22:15.644Z,82.48
2016-11-22T02:23:29.921Z,82.57
2016-11-22T02:24:43.983Z,82.57
2016-11-22T02:25:58.724Z,82.76
2016-11-22T02:27:12.816Z,82.48
2016-11-22T02:28:27.113Z,82.48
2016-11-22T02:29:41.455Z,82.48
2016-11-22T02:30:55.575Z,82.48
2016-11-22T02:32:10.218Z,82
2016-11-22T02:33:24.400Z,82
2016-11-22T02:34:38.701Z,81.9
2016-11-22T02:35:53.329Z,81.81
2016-11-22T02:37:07.402Z,81.71
2016-11-22T02:38:21.467Z,82.28
2016-11-22T02:39:35.881Z,82.28
2016-11-22T02:40:50.324Z,81.9
2016-11-22T02:42:04.821Z,82
2016-11-22T02:43:18.883Z,82.09
2016-11-22T02:44:33.364Z,82.38
2016-11-22T02:45:47.754Z,82.28
2016-11-22T02:49:00.730Z,82.53
2016-11-22T02:50:14.765Z,83
2016-11-22T02:51:29.110Z,83
2016-11-22T02:52:43.189Z,83.29
2016-11-22T02:53:57.782Z,83.48
2016-11-22T02:55:11.928Z,83.29
2016-11-22T02:56:26.622Z,83.29
2016-11-22T02:57:41.356Z,83.39
2016-11-22T02:58:55.411Z,83.19
2016-11-22T03:00:10.034Z,82.91
2016-11-22T03:01:24.163Z,83
2016-11-22T03:02:39.114Z,82.71
2016-11-22T03:03:53.446Z,82.53
2016-11-22T03:05:07.513Z,82.43
2016-11-22T03:06:22.165Z,82.34
2016-11-22T03:07:36.294Z,82.62
2016-11-22T03:08:50.688Z,82.91
2016-11-22T03:10:05.384Z,83.19
2016-11-22T03:11:22.307Z,83.86
2016-11-22T03:12:36.596Z,83.76
2016-11-22T03:13:50.665Z,83.95
2016-11-22T03:15:04.966Z,83.76
2016-11-22T03:16:19.061Z,84.14
2016-11-22T03:17:33.769Z,84.24
2016-11-22T03:18:48.265Z,84.14
2016-11-22T03:20:02.693Z,83.62
2016-11-22T03:21:17.041Z,84.38
2016-11-22T03:22:31.093Z,83.76
2016-11-22T03:23:45.708Z,83.48
2016-11-22T03:24:59.843Z,83.19
2016-11-22T03:26:13.880Z,82.81
2016-11-22T03:27:28.210Z,83.58
2016-11-22T03:28:42.277Z,83.48
2016-11-22T03:29:56.639Z,83.76
2016-11-22T03:31:10.924Z,83.39
2016-11-22T03:32:24.974Z,83.48
2016-11-22T03:33:39.433Z,82.91
2016-11-22T03:34:53.537Z,82.34
2016-11-22T03:36:07.862Z,82.71
2016-11-22T03:37:21.951Z,83.48
2016-11-22T03:38:35.997Z,83.95
2016-11-22T03:39:50.970Z,83.95
2016-11-22T03:41:05.378Z,84.24
2016-11-22T03:42:19.671Z,83.58
2016-11-22T03:43:33.755Z,84.05
2016-11-22T03:44:47.850Z,83.86
2016-11-22T03:46:02.543Z,83.95
2016-11-22T03:47:16.841Z,83.76
2016-11-22T03:48:31.150Z,84.14
2016-11-22T03:49:45.565Z,83.95
2016-11-22T03:50:59.611Z,83.86
2016-11-22T03:52:16.955Z,83.86
2016-11-22T03:53:31.121Z,83.86
2016-11-22T03:54:45.715Z,84.24
2016-11-22T03:56:00.205Z,84.33
2016-11-22T03:57:14.269Z,84.72
2016-11-22T03:58:28.712Z,84.81
2016-11-22T03:59:42.821Z,84.81
2016-11-22T04:00:56.876Z,84.33
2016-11-22T04:02:11.594Z,83.95
2016-11-22T04:03:25.941Z,83.86
2016-11-22T04:04:40.308Z,83.95
2016-11-22T04:05:54.415Z,84.19
2016-11-22T04:07:08.430Z,83.9
2016-11-22T04:08:22.904Z,84
2016-11-22T04:09:37.353Z,83.95
2016-11-22T04:10:51.934Z,84
2016-11-22T04:12:06.657Z,83.95
2016-11-22T04:13:20.718Z,84.05
2016-11-22T04:14:35.002Z,83.67
2016-11-22T04:15:49.414Z,83.29
2016-11-22T04:17:03.893Z,83.33
2016-11-22T04:18:18.196Z,83.1
2016-11-22T04:19:32.402Z,83.29
2016-11-22T04:20:46.772Z,83.76
2016-11-22T04:22:00.911Z,83.29
2016-11-22T04:23:15.254Z,83.76
2016-11-22T04:27:26.881Z,84.72
2016-11-22T04:28:41.299Z,84.81
2016-11-22T04:29:57.627Z,84.43
2016-11-22T04:31:11.669Z,84.91
2016-11-22T04:32:26.082Z,85.28
2016-11-22T04:33:40.121Z,85.1
2016-11-22T04:34:54.781Z,85.19
2016-11-22T04:36:08.893Z,84.62
2016-11-22T04:37:23.360Z,84.72
2016-11-22T04:38:37.676Z,84.33
2016-11-22T04:39:52.138Z,84.33
2016-11-22T04:41:06.586Z,84.14
2016-11-22T04:42:20.729Z,84.14
2016-11-22T04:43:35.097Z,83.58
2016-11-22T04:44:49.463Z,83.39
2016-11-22T04:46:03.548Z,84.14
2016-11-22T04:47:17.878Z,85
2016-11-22T04:48:32.507Z,84.43
2016-11-22T04:49:46.598Z,83.95
2016-11-22T04:51:01.046Z,84.05
2016-11-22T04:52:15.607Z,83.48
2016-11-22T04:53:29.940Z,82.81
2016-11-22T04:54:44.626Z,83.62
2016-11-22T04:55:59.195Z,83.42
2016-11-22T04:57:14.187Z,84.14
2016-11-22T04:58:29.532Z,84.19
2016-11-22T04:59:45.259Z,84
2016-11-22T05:01:03.857Z,84.19
2016-11-22T05:02:27.010Z,84
2016-11-22T05:03:50.236Z,84
2016-11-22T05:05:14.521Z,83.71
2016-11-22T05:06:40.121Z,84.19
2016-11-22T05:08:02.712Z,83.9
2016-11-22T05:09:27.871Z,83.52
2016-11-22T05:10:51.240Z,83.33
2016-11-22T05:12:12.288Z,83.52
2016-11-22T05:13:48.203Z,83.71
2016-11-22T05:15:08.320Z,82.86
2016-11-22T05:16:27.503Z,82.48
2016-11-22T05:17:48.477Z,82.67
2016-11-22T05:19:08.242Z,82.57
2016-11-22T05:20:29.242Z,82.57
2016-11-22T05:21:46.531Z,82.67
2016-11-22T05:23:03.162Z,82.57
2016-11-22T05:24:24.238Z,82.57
2016-11-22T05:25:43.919Z,82.51
2016-11-22T05:27:04.072Z,82.61
2016-11-22T05:28:24.218Z,81.47
2016-11-22T05:29:46.455Z,80.23
2016-11-22T05:31:04.765Z,79.85
2016-11-22T05:32:24.799Z,79.62
2016-11-22T05:33:42.068Z,79.91
2016-11-22T05:35:04.285Z,80.38
2016-11-22T05:36:23.706Z,80.86
2016-11-22T05:37:42.719Z,81.52
2016-11-22T05:39:00.154Z,81.24
2016-11-22T05:40:19.489Z,81.33
2016-11-22T05:41:36.565Z,81.81
2016-11-22T05:42:53.676Z,80.86
2016-11-22T05:44:09.900Z,80.29
2016-11-22T05:45:28.636Z,80.57
2016-11-22T05:46:49.911Z,81.05
2016-11-22T05:48:20.806Z,81.24
2016-11-22T05:49:41.518Z,81.77
2016-11-22T05:51:01.357Z,81.01
2016-11-22T05:52:19.957Z,81.33
2016-11-22T05:53:39.019Z,80.86
2016-11-22T05:54:59.013Z,81.1
2016-11-22T05:56:15.832Z,81.43
2016-11-22T05:57:34.727Z,81.33
2016-11-22T05:58:52.098Z,81.24
2016-11-22T06:00:09.170Z,81.52
2016-11-22T06:01:29.832Z,81.05
2016-11-22T06:02:48.829Z,80.95
2016-11-22T06:04:09.153Z,81.58
2016-11-22T06:05:26.834Z,81.43
2016-11-22T06:06:46.399Z,81.1
2016-11-22T06:08:03.633Z,80.86
2016-11-22T06:09:20.236Z,81.38
2016-11-22T06:10:36.762Z,81.77
2016-11-22T06:11:51.772Z,81.48
2016-11-22T06:13:09.175Z,81.77
2016-11-22T06:14:25.465Z,81.77
2016-11-22T06:15:42.770Z,81.43
2016-11-22T06:17:00.068Z,81.29
2016-11-22T06:18:15.944Z,82
2016-11-22T06:19:36.181Z,80.95
2016-11-22T06:21:06.533Z,80.86
2016-11-22T06:22:23.855Z,81.05
2016-11-22T06:23:41.392Z,81.29
2016-11-22T06:24:57.297Z,81.86
2016-11-22T06:26:15.312Z,81.58
2016-11-22T06:27:32.975Z,81.96
2016-11-22T06:28:48.342Z,82.15
2016-11-22T06:30:04.264Z,82.62
2016-11-22T06:31:20.970Z,82.53
2016-11-22T06:32:36.008Z,82.34
2016-11-22T06:33:50.534Z,82.53
2016-11-22T06:35:05.172Z,82.91
2016-11-22T06:36:19.390Z,83.1
2016-11-22T06:37:33.609Z,84.19
2016-11-22T06:38:47.951Z,84
2016-11-22T06:40:02.302Z,83.81
2016-11-22T06:41:17.383Z,83.71
2016-11-22T06:42:32.272Z,83.42
2016-11-22T06:43:47.117Z,83.71
2016-11-22T06:45:01.818Z,83.1
2016-11-22T06:46:16.322Z,83.14
2016-11-22T06:47:31.445Z,82.95
2016-11-22T06:48:46.049Z,83.23
2016-11-22T06:50:01.034Z,83.23
2016-11-22T06:51:15.680Z,83.33
2016-11-22T06:52:29.794Z,82.48
2016-11-22T06:53:44.535Z,82.38
2016-11-22T06:54:59.239Z,81.9
2016-11-22T06:56:13.313Z,81.52
2016-11-22T06:57:27.686Z,82.09
2016-11-22T06:58:42.028Z,81.33
2016-11-22T06:59:56.404Z,81.05
2016-11-22T07:01:11.055Z,81.14
2016-11-22T07:02:25.184Z,81.14
2016-11-22T07:03:39.587Z,81.9
2016-11-22T07:04:53.929Z,82
2016-11-22T07:06:08.237Z,82
2016-11-22T07:07:22.372Z,81.9
2016-11-22T07:08:36.967Z,82
2016-11-22T07:09:53.662Z,81.71
2016-11-22T07:11:08.001Z,81.81
2016-11-22T07:12:22.708Z,81.81
2016-11-22T07:13:36.986Z,81.81
2016-11-22T07:14:51.226Z,82
2016-11-22T07:16:05.651Z,82.15
2016-11-22T07:17:20.191Z,82.38
2016-11-22T07:18:35.002Z,82.19
2016-11-22T07:19:49.482Z,82.05
2016-11-22T07:21:03.813Z,82
2016-11-22T07:22:18.433Z,82.48
2016-11-22T07:23:33.352Z,82.38
2016-11-22T07:24:48.464Z,82.19
2016-11-22T07:26:03.122Z,82.19
2016-11-22T07:27:32.592Z,82.57
2016-11-22T07:28:46.832Z,82.48
2016-11-22T07:30:01.434Z,82.86
2016-11-22T07:31:15.887Z,82.62
2016-11-22T07:32:30.164Z,83.04
2016-11-22T07:33:44.741Z,83.04
2016-11-22T07:34:59.465Z,83.04
2016-11-22T07:36:14.211Z,83.14
2016-11-22T07:37:28.535Z,83.14
2016-11-22T07:38:42.577Z,82.57
2016-11-22T07:39:56.722Z,82.57
2016-11-22T07:41:10.939Z,82.38
2016-11-22T07:42:25.910Z,82.48
2016-11-22T07:43:40.390Z,82.48
2016-11-22T07:44:54.699Z,82.38
2016-11-22T07:46:09.139Z,82
2016-11-22T07:47:23.486Z,82.19
2016-11-22T07:48:38.617Z,82.09
2016-11-22T07:49:53.172Z,82
2016-11-22T07:51:07.701Z,82.38
2016-11-22T07:52:22.304Z,82.48
2016-11-22T07:53:36.915Z,82.57
2016-11-22T07:54:51.309Z,82.28
2016-11-22T07:56:05.531Z,82
2016-11-22T07:57:20.081Z,82.48
2016-11-22T07:58:34.227Z,83.04
2016-11-22T07:59:48.454Z,82.7
2016-11-22T08:03:31.485Z,81.95
2016-11-22T08:04:46.087Z,81.56
2016-11-22T08:06:00.394Z,82.42
2016-11-22T08:07:15.120Z,81.95
2016-11-22T08:08:30.235Z,82.19
2016-11-22T08:09:45.046Z,81.81
2016-11-22T08:10:59.688Z,82.23
2016-11-22T08:12:14.007Z,82
2016-11-22T08:13:29.161Z,82.48
2016-11-22T08:14:43.777Z,82.48
2016-11-22T08:15:59.156Z,82.28
2016-11-22T08:17:13.656Z,81.95
2016-11-22T08:18:28.340Z,82.23
2016-11-22T08:19:42.949Z,82.42
2016-11-22T08:21:12.264Z,82.51
2016-11-22T08:22:26.678Z,81.95
2016-11-22T08:23:41.042Z,82.04
2016-11-22T08:24:55.748Z,82.14
2016-11-22T08:26:10.901Z,82.14
2016-11-22T08:27:25.679Z,81.85
2016-11-22T08:28:42.418Z,81.56
2016-11-22T08:29:57.365Z,81.95
2016-11-22T08:31:11.804Z,81.76
2016-11-22T08:33:55.819Z,82.04
2016-11-22T08:35:11.231Z,81.37
2016-11-22T08:36:26.016Z,81.56
2016-11-22T08:37:41.393Z,81.37
2016-11-22T08:38:56.425Z,81.95
2016-11-22T08:40:10.908Z,82.04
2016-11-22T08:46:52.583Z,81.03
2016-11-22T08:48:07.458Z,81.13
2016-11-22T08:49:22.309Z,81.13
2016-11-22T08:50:36.973Z,81.13
2016-11-22T08:51:51.587Z,81.13
2016-11-22T08:53:07.555Z,81.13
2016-11-22T08:54:22.288Z,81.6
2016-11-22T08:55:37.166Z,81.41
2016-11-22T08:56:51.744Z,81.51
2016-11-22T08:58:06.726Z,81.79
2016-11-22T08:59:21.095Z,81.41
2016-11-22T09:00:36.505Z,81.6
2016-11-22T09:01:50.845Z,81.7
2016-11-22T09:03:05.206Z,82.27
2016-11-22T09:04:19.822Z,81.98
2016-11-22T09:05:34.443Z,82.27
2016-11-22T09:06:49.385Z,81.89
2016-11-22T09:08:03.754Z,81.89
2016-11-22T09:09:18.170Z,81.6
2016-11-22T09:10:32.903Z,81.6
2016-11-22T09:15:18.599Z,81.6
2016-11-22T09:20:25.269Z,81.03
2016-11-22T09:21:58.972Z,81.03
2016-11-22T09:23:33.647Z,81.07
2016-11-22T09:25:07.296Z,80.5
2016-11-22T09:26:42.158Z,79.93
2016-11-22T09:28:15.672Z,80.75
2016-11-22T09:29:49.393Z,81.32
2016-11-22T09:31:42.492Z,80.75
2016-11-22T09:33:16.945Z,80.84
2016-11-22T09:34:50.989Z,81.36
2016-11-22T09:36:24.644Z,80.02
2016-11-22T09:37:58.756Z,80.6
2016-11-22T09:39:32.685Z,80.31
2016-11-22T09:41:06.380Z,80.69
2016-11-22T09:42:40.632Z,82.6
2016-11-22T09:44:14.795Z,82.31
2016-11-22T09:45:48.818Z,81.59
2016-11-22T09:47:49.880Z,80.83
2016-11-22T09:49:24.359Z,80.26
2016-11-22T09:50:58.302Z,79.88
2016-11-22T09:52:31.972Z,79.3
2016-11-22T09:54:05.607Z,78.86
2016-11-22T09:55:59.347Z,79.4
2016-11-22T09:57:33.151Z,78.83
2016-11-22T09:59:06.771Z,78.92
2016-11-22T10:00:40.570Z,79.21
2016-11-22T10:02:15.065Z,79.3
2016-11-22T10:03:53.365Z,79.21
2016-11-22T10:05:27.009Z,79.49
2016-11-22T10:07:00.945Z,79.4
2016-11-22T10:08:34.255Z,79.21
2016-11-22T10:10:27.534Z,78.54
2016-11-22T10:12:01.600Z,79.4
2016-11-22T10:13:36.096Z,79.3
2016-11-22T10:15:09.364Z,79.02
2016-11-22T10:16:43.155Z,79.21
2016-11-22T10:21:22.511Z,79.88
2016-11-22T10:22:56.175Z,79.3
2016-11-22T10:24:30.257Z,79.11
2016-11-22T10:26:04.487Z,79.88
2016-11-22T10:27:38.086Z,80.26
2016-11-22T10:29:12.679Z,80.16
2016-11-22T10:30:46.382Z,80.35
2016-11-22T10:32:20.147Z,79.59
2016-11-22T10:33:53.718Z,80.16
2016-11-22T10:35:46.912Z,79.49
2016-11-22T10:37:20.299Z,79.78
2016-11-22T10:38:54.213Z,79.4
2016-11-22T10:40:29.320Z,78.92
2016-11-22T10:41:59.320Z,79.4
2016-11-22T10:43:32.780Z,79.21
2016-11-22T10:48:16.577Z,79.3
2016-11-22T10:49:50.233Z,79.25
2016-11-22T10:51:24.644Z,78.83
2016-11-22T10:52:58.740Z,78.96
2016-11-22T10:54:33.749Z,79.21
2016-11-22T10:56:26.435Z,78.67
2016-11-22T10:58:00.519Z,78.01
2016-11-22T10:59:34.397Z,78.3
2016-11-22T11:01:08.712Z,78.2
2016-11-22T11:02:41.978Z,77.91
2016-11-22T11:04:15.522Z,78.67
2016-11-22T11:05:48.791Z,78.96
2016-11-22T11:07:22.259Z,79.53
2016-11-22T11:08:56.633Z,78.86
2016-11-22T11:10:30.543Z,79.53
2016-11-22T11:12:04.555Z,79.72
2016-11-22T11:18:47.812Z,78.49
2016-11-22T11:20:21.574Z,78.01
2016-11-22T11:21:55.149Z,77.62
2016-11-22T11:23:29.035Z,77.95
2016-11-22T11:25:02.841Z,77.82
2016-11-22T11:26:56.116Z,77.86
2016-11-22T11:28:29.790Z,77.76
2016-11-22T11:30:03.879Z,77.28
2016-11-22T11:31:37.658Z,77.09
2016-11-22T11:33:11.881Z,77.28
2016-11-22T11:34:45.492Z,77.09
2016-11-22T11:36:19.400Z,76.71
2016-11-22T11:37:53.033Z,76.46
2016-11-22T11:39:22.180Z,75.89
2016-11-22T11:40:56.188Z,75.79
2016-11-22T11:42:29.820Z,75.22
2016-11-22T11:44:04.784Z,74.93
2016-11-22T11:45:39.120Z,74.46
2016-11-22T11:47:15.476Z,74.74
2016-11-22T11:49:08.439Z,74.17
2016-11-22T11:50:42.279Z,74.17
2016-11-22T11:52:15.897Z,74.93
2016-11-22T11:53:51.468Z,74.55
2016-11-22T11:55:25.339Z,74.46
2016-11-22T11:56:58.868Z,75.22
2016-11-22T11:58:32.670Z,74.74
2016-11-22T12:00:06.739Z,74.84
2016-11-22T12:01:41.061Z,74.93
2016-11-22T12:03:15.057Z,74.55
2016-11-22T12:05:10.219Z,74.84
2016-11-22T12:09:22.023Z,74.74
2016-11-22T12:10:55.675Z,74.65
2016-11-22T12:12:30.107Z,74.27
2016-11-22T12:13:58.553Z,74.21
2016-11-22T12:15:33.739Z,74.3
2016-11-22T12:17:07.975Z,74.11
2016-11-22T12:18:41.747Z,73.54
2016-11-22T12:20:15.110Z,73.73
2016-11-22T12:21:49.000Z,74.11
2016-11-22T12:23:24.031Z,73.16
2016-11-22T12:24:53.427Z,72.87
2016-11-22T12:26:22.226Z,73.25
2016-11-22T12:27:36.659Z,73.83
2016-11-22T12:29:10.833Z,73.63
2016-11-22T12:30:44.342Z,73.54
2016-11-22T12:32:37.573Z,73.83
2016-11-22T12:34:11.628Z,73.54
2016-11-22T12:35:45.712Z,74.02
2016-11-22T12:37:19.349Z,73.92
2016-11-22T12:38:53.458Z,73.83
2016-11-22T12:40:27.938Z,74.02
2016-11-22T12:42:02.168Z,74.21
2016-11-22T12:43:37.073Z,74.21
2016-11-22T12:45:05.751Z,74.11
2016-11-22T12:46:39.846Z,73.73
2016-11-22T12:48:13.574Z,74.21
2016-11-22T12:49:47.736Z,74.69
2016-11-22T12:51:21.332Z,74.21
2016-11-22T12:52:54.764Z,74.11
2016-11-22T12:54:28.470Z,74.11
2016-11-22T12:56:01.948Z,74.49
2016-11-22T12:57:35.865Z,74.21
2016-11-22T12:59:09.850Z,74.4
2016-11-22T13:01:03.039Z,74.49
2016-11-22T13:02:32.349Z,74.02
2016-11-22T13:03:46.987Z,73.16
2016-11-22T13:05:20.572Z,73.63
2016-11-22T13:06:54.639Z,73.54
2016-11-22T13:08:47.463Z,74.21
2016-11-22T13:10:22.111Z,74.27
2016-11-22T13:11:55.987Z,74.11
2016-11-22T13:13:29.457Z,72.87
2016-11-22T13:15:02.995Z,72.49
2016-11-22T13:16:36.933Z,72.11
2016-11-22T13:18:10.582Z,72.01
2016-11-22T13:19:44.441Z,71.63
2016-11-22T13:21:18.112Z,71.86
2016-11-22T13:22:47.273Z,71.47
2016-11-22T13:24:21.154Z,71.19
2016-11-22T13:25:57.075Z,71
2016-11-22T13:27:30.700Z,71.38
2016-11-22T13:29:04.641Z,70.52
2016-11-22T13:30:38.658Z,71
2016-11-22T13:32:12.971Z,70.42
2016-11-22T13:33:46.646Z,71
2016-11-22T13:35:47.742Z,70.61
2016-11-22T13:37:21.161Z,69.76
2016-11-22T13:38:55.262Z,69.76
2016-11-22T13:40:28.897Z,70.33
2016-11-22T13:42:02.361Z,70.42
2016-11-22T13:43:56.015Z,70.71
2016-11-22T13:45:30.232Z,69.95
2016-11-22T13:47:05.418Z,70.14
2016-11-22T13:48:38.750Z,70.33
2016-11-22T13:50:12.836Z,70.52
2016-11-22T13:53:22.209Z,69.66
2016-11-22T13:54:56.077Z,70.14
2016-11-22T13:56:50.425Z,70.42
2016-11-22T13:58:24.577Z,70.04
2016-11-22T13:59:58.091Z,69.76
2016-11-22T14:01:32.063Z,70.04
2016-11-22T14:05:48.913Z,70.61
2016-11-22T14:07:40.256Z,69.85
2016-11-22T14:08:54.709Z,69.95
2016-11-22T14:10:47.638Z,69.66
2016-11-22T14:12:21.591Z,69.47
2016-11-22T14:13:50.289Z,69.66
2016-11-22T14:15:04.645Z,68.8
2016-11-22T14:16:33.799Z,69.09
2016-11-22T14:18:08.260Z,69.27
2016-11-22T14:19:42.466Z,69.27
2016-11-22T14:21:16.176Z,69.56
2016-11-22T14:22:50.808Z,69.27
2016-11-22T14:24:24.726Z,69.18
2016-11-22T14:26:17.414Z,68.7
2016-11-22T14:27:51.588Z,69.37
2016-11-22T14:29:26.060Z,69.37
2016-11-22T14:31:00.342Z,69.47
2016-11-22T14:32:34.989Z,68.51
2016-11-22T14:34:09.598Z,69.09
2016-11-22T14:36:05.031Z,68.61
2016-11-22T14:37:20.097Z,68.8
2016-11-22T14:39:13.447Z,68.7
2016-11-22T14:40:47.785Z,68.9
2016-11-22T14:42:21.625Z,69.95
2016-11-22T14:43:56.205Z,70.14
2016-11-22T14:45:30.377Z,70.23
2016-11-22T14:47:05.501Z,71.09
2016-11-22T14:48:39.319Z,70.81
2016-11-22T14:50:13.195Z,71.38
2016-11-22T14:51:47.705Z,71
2016-11-22T14:53:40.515Z,71.63
2016-11-22T14:55:15.615Z,71.44
2016-11-22T14:57:17.285Z,71.53
2016-11-22T14:58:51.900Z,71.44
2016-11-22T15:00:26.572Z,71.25
2016-11-22T15:02:01.479Z,71.53
2016-11-22T15:03:35.273Z,71.72
2016-11-22T15:05:09.649Z,71.92
2016-11-22T15:06:45.818Z,72.11
2016-11-22T15:08:19.331Z,72.11
2016-11-22T15:10:12.638Z,72.3
2016-11-22T15:11:46.427Z,71.92
2016-11-22T15:13:20.207Z,73.07
2016-11-22T15:14:54.644Z,72.58
2016-11-22T15:16:55.901Z,72.26
2016-11-22T15:18:30.093Z,72.55
2016-11-22T15:20:05.618Z,72.58
2016-11-22T15:21:36.319Z,72.3
2016-11-22T15:23:10.513Z,72.58
2016-11-22T15:24:45.086Z,72.87
2016-11-22T15:26:15.031Z,72.2
2016-11-22T15:27:49.332Z,72.58
2016-11-22T15:29:23.817Z,72.26
2016-11-22T15:30:57.913Z,72.45
2016-11-22T15:32:33.670Z,73.32
2016-11-22T15:34:08.208Z,73.22
2016-11-22T15:35:42.491Z,73.12
2016-11-22T15:37:37.884Z,73.12
2016-11-22T15:39:39.848Z,73.22
2016-11-22T15:41:13.692Z,73.32
2016-11-22T15:42:47.216Z,73.69
2016-11-22T15:44:21.399Z,73.98
2016-11-22T15:45:55.741Z,73.32
2016-11-22T15:47:25.969Z,73.12
2016-11-22T15:48:59.551Z,72.83
2016-11-22T15:50:33.646Z,73.22
2016-11-22T15:52:06.980Z,73.6
2016-11-22T15:53:42.091Z,73.32
2016-11-22T15:55:15.627Z,73.12
2016-11-22T15:56:49.181Z,72.55
2016-11-22T15:58:23.046Z,72.55
2016-11-22T15:59:57.306Z,72.93
2016-11-22T16:01:31.742Z,72.83
2016-11-22T16:03:05.371Z,73.03
2016-11-22T16:04:39.166Z,73.69
2016-11-22T16:06:33.130Z,73.6
2016-11-22T16:08:07.326Z,74.17
2016-11-22T16:09:40.927Z,74.27
2016-11-22T16:11:14.856Z,74.08
2016-11-22T16:12:48.895Z,74.08
2016-11-22T16:14:23.734Z,73.88
2016-11-22T16:15:57.932Z,74.17
2016-11-22T16:17:32.451Z,74.27
2016-11-22T16:19:06.606Z,74.46
2016-11-22T16:20:40.226Z,73.5
2016-11-22T16:22:33.306Z,73.41
2016-11-22T16:24:07.804Z,73.5
2016-11-22T16:25:42.836Z,74.27
2016-11-22T16:27:16.961Z,74.46
2016-11-22T16:28:50.839Z,74.27
2016-11-22T16:30:52.470Z,74.17
2016-11-22T16:32:26.903Z,74.55
2016-11-22T16:34:03.183Z,74.46
2016-11-22T16:36:11.362Z,74.65
2016-11-22T16:37:46.113Z,75.13
2016-11-22T16:39:20.241Z,74.37
2016-11-22T16:43:48.033Z,75.6
2016-11-22T16:45:21.572Z,75.89
2016-11-22T16:52:00.793Z,73.12
2016-11-22T16:56:12.179Z,73.22
2016-11-22T16:58:06.791Z,73.6
2016-11-22T16:59:20.914Z,74.27
2016-11-22T17:00:55.031Z,75.03
2016-11-22T17:02:25.484Z,74.93
2016-11-22T17:06:30.491Z,74.37
2016-11-22T17:08:04.403Z,74.08
2016-11-22T17:09:37.981Z,74.46
2016-11-22T17:11:11.448Z,75.03
2016-11-22T17:12:41.393Z,74.93
2016-11-22T17:14:16.201Z,74.27
2016-11-22T17:15:50.951Z,74.37
2016-11-22T17:17:25.565Z,74.37
2016-11-22T17:18:59.693Z,74.55
2016-11-22T17:20:33.431Z,74.27
2016-11-22T17:22:08.484Z,74.46
2016-11-22T17:24:01.885Z,74.65
2016-11-22T17:25:36.692Z,75.03
2016-11-22T17:27:12.465Z,74.65
2016-11-22T17:29:19.664Z,74.84
2016-11-22T17:30:53.873Z,74.46
2016-11-22T17:32:27.623Z,74.46
2016-11-22T17:34:02.322Z,75.13
2016-11-22T17:35:35.889Z,74.17
2016-11-22T17:37:10.283Z,75.03
2016-11-22T17:38:44.134Z,75.03
2016-11-22T17:40:18.166Z,74.84
2016-11-22T17:42:11.732Z,74.93
2016-11-22T17:43:44.512Z,75.22
2016-11-22T17:45:17.979Z,75.03
2016-11-22T17:46:51.784Z,75.42
2016-11-22T17:48:26.034Z,75.42
2016-11-22T17:50:27.205Z,75.79
2016-11-22T17:52:01.542Z,76.08
2016-11-22T17:53:37.340Z,76.56
2016-11-22T17:55:08.696Z,75.89
2016-11-22T17:56:43.672Z,76.08
2016-11-22T17:58:18.270Z,76.08
2016-11-22T17:59:52.258Z,75.89
2016-11-22T18:01:25.955Z,75.98
2016-11-22T18:03:00.439Z,75.89
2016-11-22T18:04:34.514Z,76.62
2016-11-22T18:07:37.574Z,76.71
2016-11-22T18:09:12.908Z,76.42
2016-11-22T18:11:16.879Z,76.94
2016-11-22T18:12:51.432Z,76.56
2016-11-22T18:14:20.628Z,76.62
2016-11-22T18:16:16.605Z,76.56
2016-11-22T18:17:50.497Z,76.18
2016-11-22T18:19:25.328Z,75.89
2016-11-22T18:20:59.705Z,76.08
2016-11-22T18:22:36.455Z,75.32
2016-11-22T18:24:37.449Z,75.79
2016-11-22T18:26:11.412Z,74.74
2016-11-22T18:27:45.521Z,75.79
2016-11-22T18:29:21.330Z,75.51
2016-11-22T18:30:55.677Z,76.18
2016-11-22T18:32:49.666Z,76.46
2016-11-22T18:34:33.034Z,76.56
2016-11-22T18:36:08.018Z,77.03
2016-11-22T18:37:42.217Z,76.94
2016-11-22T18:39:16.808Z,77.7
2016-11-22T18:41:10.169Z,76.94
2016-11-22T18:42:39.692Z,77.23
2016-11-22T18:43:54.340Z,77.09
2016-11-22T18:45:28.222Z,77.57
2016-11-22T18:47:22.352Z,77.19
2016-11-22T18:48:51.760Z,77.67
2016-11-22T18:50:05.867Z,78.05
2016-11-22T18:51:58.227Z,77.47
2016-11-22T18:53:13.648Z,77.19
2016-11-22T18:54:47.570Z,77.19
2016-11-22T18:56:36.999Z,77.38
2016-11-22T18:57:51.485Z,77.95
2016-11-22T18:59:26.501Z,77.38
2016-11-22T19:00:55.138Z,77.57
2016-11-22T19:02:30.521Z,77.47
2016-11-22T19:04:05.191Z,77.09
2016-11-22T19:05:54.450Z,76.9
2016-11-22T19:07:09.443Z,77.28
2016-11-22T19:08:44.242Z,77
2016-11-22T19:10:14.221Z,77.76
2016-11-22T19:11:48.490Z,77.47
2016-11-22T19:13:42.681Z,77.57
2016-11-22T19:15:18.576Z,77.28